Time;durP1;ratioP1;P1;durP2;ratioP2;P2;SDS_P1;SDS_P2;PMS_P1;PMS_P2;Temp;Humidity;BMP_temperature;BMP_pressure;BME280_temperature;BME280_humidity;BME280_pressure;Samples;Min_cycle;Max_cycle;Signal;HPM_P1;HPM_P2
2022/01/22 00:00:14;;;;;;;1.80;1.57;;;;;;;21.14;22.49;95274.94;7295318;19;137005;-56
2022/01/22 00:02:40;;;;;;;1.60;1.50;;;;;;;21.11;22.93;95267.56;7298564;19;137091;-56
2022/01/22 00:05:08;;;;;;;2.13;1.70;;;;;;;21.15;22.38;95273.88;7307161;19;136594;-56
2022/01/22 00:07:34;;;;;;;1.60;1.50;;;;;;;21.10;22.25;95252.69;7292328;19;137863;-56
2022/01/22 00:10:04;;;;;;;1.70;1.60;;;;;;;21.15;22.40;95257.94;7309643;19;136890;-56
2022/01/22 00:12:44;;;;;;;1.60;1.50;;;;;;;21.10;22.53;95257.22;7307939;19;137518;-57
2022/01/22 00:15:13;;;;;;;1.73;1.63;;;;;;;21.11;22.42;95264.91;7308708;19;136962;-57
2022/01/22 00:17:39;;;;;;;1.93;1.70;;;;;;;21.11;22.15;95264.13;7296748;19;138061;-56
2022/01/22 00:20:06;;;;;;;1.53;1.43;;;;;;;21.09;22.33;95260.97;7308009;19;137698;-56
2022/01/22 00:22:35;;;;;;;2.20;1.60;;;;;;;21.12;22.29;95261.16;7308317;19;137747;-56
2022/01/22 00:25:01;;;;;;;1.73;1.63;;;;;;;21.12;22.61;95269.13;7307558;19;136768;-56
2022/01/22 00:27:28;;;;;;;2.27;1.70;;;;;;;21.09;22.30;95260.97;7298613;19;137722;-56
2022/01/22 00:29:55;;;;;;;2.23;1.73;;;;;;;21.11;22.05;95256.16;7306041;19;137841;-56
2022/01/22 00:32:21;;;;;;;3.20;1.83;;;;;;;21.11;22.65;95254.28;7308025;19;137065;-57
2022/01/22 00:34:47;;;;;;;2.17;1.97;;;;;;;21.09;22.04;95245.81;7308414;19;136909;-56
2022/01/22 00:37:13;;;;;;;1.93;1.80;;;;;;;21.09;22.46;95242.38;7308277;19;138197;-56
2022/01/22 00:39:39;;;;;;;1.60;1.50;;;;;;;21.10;22.31;95246.59;7294513;19;137314;-56
2022/01/22 00:42:11;;;;;;;1.60;1.50;;;;;;;21.10;22.06;95249.25;7307699;19;136847;-58
2022/01/22 00:44:37;;;;;;;1.60;1.50;;;;;;;21.11;22.38;95246.31;7306380;19;136882;-56
2022/01/22 00:47:03;;;;;;;2.03;1.60;;;;;;;21.11;22.03;95258.81;7308342;19;138575;-56
2022/01/22 00:49:30;;;;;;;1.83;1.70;;;;;;;21.11;22.14;95259.59;7299192;19;138367;-55
2022/01/22 00:51:56;;;;;;;1.73;1.63;;;;;;;21.07;22.23;95252.50;7303992;19;137768;-56
2022/01/22 00:54:21;;;;;;;1.77;1.67;;;;;;;21.09;22.05;95267.06;7308290;19;137086;-56
2022/01/22 00:56:47;;;;;;;1.87;1.77;;;;;;;21.11;22.05;95262.25;7306736;19;137471;-57
2022/01/22 00:59:13;;;;;;;2.17;1.97;;;;;;;21.09;22.06;95256.44;7307860;19;137089;-57
2022/01/22 01:01:38;;;;;;;1.90;1.80;;;;;;;21.09;22.83;95256.44;7293977;19;137746;-57
2022/01/22 01:04:04;;;;;;;1.93;1.80;;;;;;;21.09;22.29;95250.34;7306519;19;136581;-57
2022/01/22 01:06:30;;;;;;;1.90;1.80;;;;;;;21.09;22.36;95237.84;7305144;19;137455;-57
2022/01/22 01:08:56;;;;;;;2.57;2.13;;;;;;;21.09;22.66;95247.69;7308307;19;138172;-57
2022/01/22 01:11:25;;;;;;;2.07;1.87;;;;;;;21.09;22.10;95248.47;7305914;19;136811;-58
2022/01/22 01:13:56;;;;;;;2.30;2.07;;;;;;;21.08;22.29;95248.75;7294834;19;136950;-57
2022/01/22 01:16:44;;;;;;;2.00;1.90;;;;;;;21.09;22.04;95247.69;7299920;19;138089;-57
2022/01/22 01:35:25;;;;;;;2.30;1.80;;;;;;;21.04;22.52;95219.31;7285510;19;136958;-57
2022/01/22 01:37:52;;;;;;;2.23;2.03;;;;;;;21.06;22.17;95216.38;7299624;19;138005;-57
2022/01/22 01:40:21;;;;;;;1.93;1.60;;;;;;;21.04;21.98;95219.31;7300144;19;138874;-57
2022/01/22 01:43:03;;;;;;;1.97;1.87;;;;;;;21.06;22.00;95219.03;7298110;19;137596;-57
2022/01/22 01:45:29;;;;;;;1.73;1.63;;;;;;;21.06;22.47;95209.19;7283892;19;139346;-57
2022/01/22 01:48:02;;;;;;;1.97;1.80;;;;;;;21.04;22.33;95203.38;7298918;19;138296;-56
2022/01/22 01:50:30;;;;;;;2.23;1.97;;;;;;;21.05;22.26;95198.88;7298045;19;137142;-56
2022/01/22 01:53:11;;;;;;;1.67;1.57;;;;;;;21.03;22.03;95197.28;7298790;19;137262;-56
2022/01/22 01:56:03;;;;;;;1.63;1.53;;;;;;;21.05;22.53;95198.88;7284969;19;137582;-57
2022/01/22 01:58:29;;;;;;;1.87;1.77;;;;;;;21.06;22.39;95189.81;7298423;19;137539;-56
2022/01/22 02:00:56;;;;;;;1.90;1.80;;;;;;;20.99;21.72;95180.31;7298303;19;137076;-56
2022/01/22 02:03:23;;;;;;;1.60;1.50;;;;;;;21.06;21.89;95197.78;7297694;19;136770;-56
2022/01/22 02:05:50;;;;;;;1.53;1.43;;;;;;;20.95;22.20;95184.63;7296238;19;136742;-57
2022/01/22 02:08:17;;;;;;;2.60;2.20;;;;;;;21.03;22.48;95204.47;7284238;19;137168;-57
2022/01/22 02:10:48;;;;;;;1.83;1.73;;;;;;;21.00;21.85;95205.84;7297342;19;137631;-57
2022/01/22 02:24:12;;;;;;;1.50;1.40;;;;;;;21.03;21.79;95189.31;7298519;19;136488;-57
2022/01/22 02:26:38;;;;;;;1.70;1.60;;;;;;;20.95;22.03;95175.88;7294224;19;136848;-57
2022/01/22 02:29:04;;;;;;;2.27;1.80;;;;;;;21.01;21.81;95186.16;7284925;19;137429;-56
2022/01/22 02:31:39;;;;;;;2.50;1.90;;;;;;;20.96;21.95;95180.13;7298704;19;139180;-55
2022/01/22 02:36:53;;;;;;;1.73;1.63;;;;;;;20.90;22.37;95173.31;7297224;19;137358;-56
2022/01/22 02:39:24;;;;;;;2.70;1.60;;;;;;;21.00;22.26;95189.91;7297888;19;137087;-57
2022/01/22 02:41:51;;;;;;;1.83;1.50;;;;;;;20.99;22.25;95190.16;7283201;19;137245;-57
2022/01/22 02:44:44;;;;;;;2.00;1.77;;;;;;;20.98;22.33;95180.63;7297350;19;137740;-57
2022/01/22 02:47:09;;;;;;;1.80;1.70;;;;;;;20.89;22.50;95174.38;7297881;19;137659;-57
2022/01/22 02:49:35;;;;;;;1.70;1.60;;;;;;;20.99;22.15;95196.25;7297388;19;138108;-57
2022/01/22 02:52:05;;;;;;;1.77;1.53;;;;;;;20.99;22.20;95195.47;7283446;19;136927;-57
2022/01/22 02:54:30;;;;;;;1.70;1.60;;;;;;;20.97;21.81;95194.97;7297668;19;137963;-56
2022/01/22 02:56:56;;;;;;;2.60;1.77;;;;;;;20.99;22.43;95182.97;7295686;19;137097;-57
2022/01/22 02:59:23;;;;;;;1.70;1.60;;;;;;;20.99;22.38;95180.31;7297448;19;138335;-57
2022/01/22 03:01:50;;;;;;;1.90;1.50;;;;;;;20.98;22.11;95184.06;7284329;19;137645;-57
2022/01/22 03:04:16;;;;;;;1.77;1.67;;;;;;;20.93;21.59;95178.84;7296026;19;136992;-57
2022/01/22 03:06:43;;;;;;;1.43;1.33;;;;;;;20.85;22.19;95163.56;7293887;19;137652;-57
2022/01/22 03:09:12;;;;;;;1.70;1.40;;;;;;;20.96;22.38;95182.78;7297148;19;138035;-57
2022/01/22 03:12:00;;;;;;;1.83;1.73;;;;;;;20.70;22.08;95131.91;7295533;19;137527;-57
2022/01/22 03:27:34;;;;;;;1.60;1.50;;;;;;;20.96;22.16;95156.22;7296764;19;138001;-56
2022/01/22 03:30:01;;;;;;;1.87;1.50;;;;;;;20.95;22.27;95158.09;7297251;19;138292;-56
2022/01/22 03:32:33;;;;;;;1.60;1.50;;;;;;;20.95;21.98;95154.63;7295075;19;137653;-57
2022/01/22 03:35:09;;;;;;;1.50;1.40;;;;;;;20.91;21.84;95148.34;7283346;19;138621;-56
2022/01/22 03:37:35;;;;;;;1.60;1.50;;;;;;;20.93;22.18;95144.31;7294306;19;136862;-56
2022/01/22 03:40:01;;;;;;;1.90;1.50;;;;;;;20.95;22.11;95151.97;7295075;19;137209;-56
2022/01/22 03:42:27;;;;;;;1.40;1.30;;;;;;;20.95;22.33;95144.81;7296237;19;137589;-56
2022/01/22 03:44:52;;;;;;;1.67;1.57;;;;;;;20.95;22.02;95144.00;7295798;19;137515;-57
2022/01/22 03:47:18;;;;;;;1.70;1.60;;;;;;;20.91;21.90;95129.75;7280923;19;137672;-56
2022/01/22 03:49:44;;;;;;;1.27;1.17;;;;;;;20.95;22.00;95136.03;7294098;19;136957;-56
2022/01/22 03:52:10;;;;;;;1.60;1.50;;;;;;;20.88;21.60;95130.31;7295923;19;137960;-57
2022/01/22 03:54:36;;;;;;;1.53;1.40;;;;;;;20.90;22.05;95130.81;7294572;19;136957;-56
2022/01/22 03:57:02;;;;;;;1.57;1.47;;;;;;;20.94;22.27;95137.91;7282684;19;140933;-56
2022/01/22 03:59:30;;;;;;;1.70;1.37;;;;;;;20.94;21.59;95137.13;7295692;19;138555;-56
2022/01/22 04:04:41;;;;;;;1.80;1.50;;;;;;;20.93;21.92;95143.50;7295511;19;137008;-56
2022/01/22 04:09:42;;;;;;;1.80;1.33;;;;;;;20.94;22.16;95147.75;7281125;19;136799;-56
2022/01/22 04:12:10;;;;;;;1.50;1.30;;;;;;;20.94;21.72;95142.44;7295717;19;136999;-57
2022/01/22 04:14:44;;;;;;;1.40;1.30;;;;;;;20.94;21.59;95139.78;7294739;19;137727;-56
2022/01/22 04:25:14;;;;;;;2.30;1.57;;;;;;;20.92;21.57;95148.03;7293986;19;136951;-56
2022/01/22 04:27:39;;;;;;;1.60;1.47;;;;;;;20.84;21.97;95129.34;7294596;19;137536;-56
2022/01/22 04:30:05;;;;;;;1.60;1.40;;;;;;;20.85;21.60;95122.94;7280805;19;137367;-56
2022/01/22 04:32:32;;;;;;;2.10;1.53;;;;;;;20.90;21.42;95134.25;7293048;19;138796;-56
2022/01/22 04:34:58;;;;;;;1.40;1.30;;;;;;;20.90;21.82;95125.50;7294496;19;138834;-56
2022/01/22 04:37:24;;;;;;;1.40;1.30;;;;;;;20.90;21.85;95131.63;7293854;19;136974;-56
2022/01/22 04:39:51;;;;;;;1.80;1.50;;;;;;;20.90;21.91;95125.50;7293181;19;136936;-56
2022/01/22 04:42:18;;;;;;;3.10;1.40;;;;;;;20.89;21.73;95135.34;7281229;19;139077;-56
2022/01/22 04:47:46;;;;;;;1.50;1.30;;;;;;;20.90;22.00;95125.50;7293063;19;136811;-56
2022/01/22 04:55:33;;;;;;;2.13;1.50;;;;;;;20.90;21.50;95133.47;7300992;19;137190;-56
2022/01/22 04:57:59;;;;;;;1.70;1.50;;;;;;;20.87;22.01;95123.44;7300685;19;137110;-56
2022/01/22 05:00:25;;;;;;;1.70;1.60;;;;;;;20.90;21.80;95125.50;7300513;19;136887;-56
2022/01/22 05:02:50;;;;;;;3.20;1.63;;;;;;;20.89;21.96;95126.59;7292967;19;138406;-56
2022/01/22 05:05:16;;;;;;;1.80;1.70;;;;;;;20.89;21.42;95123.94;7291995;19;137343;-56
2022/01/22 05:07:42;;;;;;;1.70;1.60;;;;;;;20.90;21.41;95122.84;7298313;19;136834;-56
2022/01/22 05:10:08;;;;;;;2.00;1.50;;;;;;;20.80;21.64;95104.41;7299448;19;137124;-56
2022/01/22 05:12:34;;;;;;;1.30;1.10;;;;;;;20.88;21.44;95120.50;7299952;19;137414;-56
2022/01/22 05:15:00;;;;;;;2.43;1.70;;;;;;;20.88;22.01;95119.69;7287361;19;138760;-56
2022/01/22 05:17:25;;;;;;;1.50;1.23;;;;;;;20.82;21.80;95102.25;7298537;19;136677;-56
2022/01/22 05:20:14;;;;;;;2.37;1.90;;;;;;;20.87;21.32;95110.16;7299700;19;136944;-56
2022/01/22 05:25:08;;;;;;;2.87;1.90;;;;;;;20.78;22.02;95083.47;7286993;19;138306;-55
2022/01/22 05:38:32;;;;;;;2.00;1.80;;;;;;;20.87;21.87;95112.81;7298495;19;136920;-56
2022/01/22 05:40:58;;;;;;;2.50;2.10;;;;;;;20.86;21.78;95105.94;7298422;19;137308;-55
2022/01/22 05:43:23;;;;;;;2.90;1.93;;;;;;;20.85;21.45;95112.31;7299209;19;137432;-56
2022/01/22 05:45:49;;;;;;;2.30;2.10;;;;;;;20.86;21.57;95113.91;7297840;19;136844;-56
2022/01/22 05:48:14;;;;;;;2.47;2.27;;;;;;;20.85;21.38;95117.63;7282568;19;140602;-56
2022/01/22 05:50:57;;;;;;;2.73;2.20;;;;;;;20.86;21.61;95111.25;7298719;19;136927;-56
2022/01/22 06:00:59;;;;;;;3.00;2.70;;;;;;;20.85;21.46;95114.97;7298775;19;137355;-56
2022/01/22 06:03:24;;;;;;;2.57;2.37;;;;;;;20.84;21.51;95116.06;7298276;19;137918;-56
2022/01/22 06:05:50;;;;;;;2.80;2.30;;;;;;;20.84;21.57;95116.84;7296098;19;136868;-56
2022/01/22 06:08:17;;;;;;;3.37;2.73;;;;;;;20.83;21.34;95109.97;7297400;19;136826;-57
2022/01/22 06:10:46;;;;;;;2.80;2.50;;;;;;;20.84;21.97;95108.09;7284241;19;137928;-56
2022/01/22 06:13:18;;;;;;;2.60;2.40;;;;;;;20.84;21.59;95100.13;7298327;19;137737;-56
2022/01/22 06:15:44;;;;;;;2.40;2.20;;;;;;;20.83;21.85;95095.91;7297229;19;136993;-56
2022/01/22 06:18:10;;;;;;;2.70;2.40;;;;;;;20.76;22.21;95076.88;7297864;19;136976;-57
2022/01/22 06:20:35;;;;;;;3.33;2.97;;;;;;;20.81;21.32;95090.06;7283621;19;137566;-56
2022/01/22 06:23:02;;;;;;;3.07;2.77;;;;;;;20.82;21.56;95097.72;7297637;19;137041;-56
2022/01/22 06:25:28;;;;;;;3.80;2.33;;;;;;;20.83;21.47;95101.19;7296820;19;137798;-57
2022/01/22 06:27:54;;;;;;;2.93;2.73;;;;;;;20.78;21.53;95098.59;7297800;19;136645;-57
2022/01/22 06:30:20;;;;;;;3.10;2.80;;;;;;;20.83;21.64;95098.53;7294975;19;137033;-57
2022/01/22 06:32:45;;;;;;;2.87;2.67;;;;;;;20.82;21.20;95107.56;7284162;19;137405;-55
2022/01/22 06:35:12;;;;;;;3.07;2.77;;;;;;;20.82;21.56;95107.56;7297670;19;136586;-57
2022/01/22 06:37:37;;;;;;;2.67;2.47;;;;;;;20.78;21.23;95101.25;7296604;19;136883;-57
2022/01/22 06:42:33;;;;;;;3.23;2.93;;;;;;;20.81;21.57;95105.97;7283985;19;137295;-56
2022/01/22 06:44:59;;;;;;;3.33;3.03;;;;;;;20.81;21.95;95109.44;7297071;19;137556;-56
2022/01/22 06:47:26;;;;;;;3.90;3.47;;;;;;;20.80;21.83;95101.75;7292709;19;137295;-56
2022/01/22 06:49:52;;;;;;;3.83;3.00;;;;;;;20.81;21.56;95101.47;7294834;19;139727;-56
2022/01/22 06:52:18;;;;;;;3.90;3.50;;;;;;;20.82;21.50;95096.94;7296455;19;137223;-56
2022/01/22 06:54:44;;;;;;;3.50;3.20;;;;;;;20.73;21.45;95073.72;7283602;19;136793;-56
2022/01/22 06:57:11;;;;;;;3.73;3.40;;;;;;;20.77;21.39;95078.44;7296888;19;137380;-56
2022/01/22 06:59:37;;;;;;;3.93;3.60;;;;;;;20.83;21.37;95091.38;7296475;19;138033;-56
2022/01/22 07:02:03;;;;;;;4.60;4.13;;;;;;;20.59;21.50;95048.97;7297812;19;137677;-56
2022/01/22 07:04:31;;;;;;;4.03;3.50;;;;;;;20.83;21.47;95085.28;7282412;19;136967;-56
2022/01/22 07:06:57;;;;;;;3.77;3.47;;;;;;;20.82;21.27;95087.09;7293875;19;138402;-56
2022/01/22 07:09:22;;;;;;;4.93;4.47;;;;;;;20.81;21.78;95085.53;7296415;19;138103;-56
2022/01/22 07:11:49;;;;;;;4.00;3.67;;;;;;;20.81;21.80;95080.22;7296455;19;138833;-57
2022/01/22 07:14:15;;;;;;;4.60;3.40;;;;;;;20.84;21.91;95081.53;7294411;19;137453;-56
2022/01/22 07:16:41;;;;;;;5.10;4.00;;;;;;;20.84;21.73;95077.00;7284245;19;138672;-56
2022/01/22 07:19:06;;;;;;;4.07;3.43;;;;;;;20.87;21.66;95075.63;7296046;19;137066;-57
2022/01/22 07:21:32;;;;;;;4.17;3.80;;;;;;;20.96;21.00;95072.00;7295701;19;137912;-57
2022/01/22 07:26:30;;;;;;;5.30;3.57;;;;;;;21.29;21.13;95061.38;7280939;19;137628;-56
2022/01/22 07:28:56;;;;;;;3.67;3.37;;;;;;;21.46;20.88;95076.78;7295015;19;137002;-56
2022/01/22 07:31:25;;;;;;;4.40;4.00;;;;;;;21.53;20.33;95072.66;7296378;19;137394;-56
2022/01/22 07:33:50;;;;;;;4.23;3.83;;;;;;;21.63;20.29;95063.69;7296171;19;138051;-56
2022/01/22 07:36:16;;;;;;;4.20;3.90;;;;;;;21.72;20.12;95061.13;7294981;19;136767;-56
2022/01/22 07:38:42;;;;;;;4.40;4.00;;;;;;;21.81;20.59;95065.44;7280139;19;139710;-56
2022/01/22 07:41:08;;;;;;;3.93;3.53;;;;;;;21.72;20.15;95056.59;7295487;19;136891;-56
2022/01/22 07:43:34;;;;;;;3.67;3.37;;;;;;;21.82;20.50;95052.94;7294866;19;137165;-56
2022/01/22 07:46:00;;;;;;;4.17;3.87;;;;;;;21.82;20.50;95052.94;7294955;19;136900;-56
2022/01/22 07:48:26;;;;;;;3.97;3.67;;;;;;;21.77;20.33;95050.38;7281519;19;137404;-55
2022/01/22 07:50:51;;;;;;;4.10;3.70;;;;;;;21.72;20.66;95053.94;7294300;19;136970;-57
2022/01/22 07:53:17;;;;;;;4.20;3.80;;;;;;;21.41;20.42;95007.75;7240657;19;138622;-77
2022/01/22 07:55:42;;;;;;;3.67;3.47;;;;;;;21.58;20.57;95045.19;7292836;19;136940;-75
2022/01/22 07:58:08;;;;;;;4.53;4.00;;;;;;;21.51;21.25;95044.78;7295145;19;139035;-76
2022/01/22 08:00:34;;;;;;;4.03;3.63;;;;;;;21.56;20.68;95050.00;7280993;19;137734;-76
2022/01/22 08:02:59;;;;;;;3.97;3.57;;;;;;;21.48;21.40;95050.69;7293442;19;139502;-76
2022/01/22 08:05:25;;;;;;;4.10;3.73;;;;;;;21.38;20.50;95041.03;7295357;19;136800;-77
2022/01/22 08:07:50;;;;;;;3.97;3.67;;;;;;;21.39;20.90;95033.84;7292957;19;139363;-77
2022/01/22 08:10:17;;;;;;;4.30;3.90;;;;;;;21.41;20.71;95044.97;7283679;19;136960;-75
2022/01/22 08:12:49;;;;;;;4.73;4.00;;;;;;;21.34;21.35;95033.97;7295856;19;137359;-80
2022/01/22 08:15:16;;;;;;;4.37;3.97;;;;;;;21.40;20.87;95035.44;7297561;19;136954;-77
2022/01/22 08:17:42;;;;;;;4.13;3.83;;;;;;;21.46;21.22;95039.56;7294114;19;138208;-76
2022/01/22 08:20:12;;;;;;;4.50;4.10;;;;;;;21.41;21.32;95034.34;7296007;19;136937;-77
2022/01/22 08:22:38;;;;;;;3.57;3.27;;;;;;;21.40;21.05;95032.78;7280153;19;137770;-76
2022/01/22 08:25:04;;;;;;;4.33;4.03;;;;;;;21.35;20.57;95046.16;7301934;19;136593;-76
2022/01/22 08:29:57;;;;;;;4.60;4.20;;;;;;;21.38;20.65;95024.31;7302586;19;137393;-76
2022/01/22 08:32:56;;;;;;;4.37;4.07;;;;;;;21.41;21.03;95016.53;7288904;19;136885;-76
2022/01/22 08:38:01;;;;;;;4.60;4.20;;;;;;;21.55;20.93;94997.94;7302888;19;137408;-78
2022/01/22 08:40:27;;;;;;;4.30;3.90;;;;;;;21.53;20.89;95000.09;7302722;19;137267;-77
2022/01/22 08:42:52;;;;;;;5.23;4.13;;;;;;;21.65;20.58;95000.34;7299820;19;138831;-77
2022/01/22 08:45:18;;;;;;;5.00;4.60;;;;;;;21.71;20.78;95004.50;7288872;19;136856;-75
2022/01/22 08:47:43;;;;;;;4.43;4.03;;;;;;;21.74;21.19;95011.88;7299756;19;137396;-74
2022/01/22 08:50:09;;;;;;;3.93;3.60;;;;;;;21.74;20.39;95003.91;7299786;19;139363;-77
2022/01/22 08:52:36;;;;;;;4.33;3.93;;;;;;;21.69;21.06;94990.72;7299793;19;137427;-74
2022/01/22 08:55:04;;;;;;;4.47;4.10;;;;;;;21.72;20.67;94995.44;7285690;19;137110;-76
2022/01/22 08:57:30;;;;;;;4.50;4.10;;;;;;;21.76;20.78;95001.72;7301015;19;137370;-76
2022/01/22 08:59:55;;;;;;;4.17;3.80;;;;;;;21.76;21.03;94991.09;7299625;19;139310;-77
2022/01/22 09:02:21;;;;;;;4.30;3.90;;;;;;;21.71;21.16;94988.56;7299332;19;138845;-77
2022/01/22 09:04:47;;;;;;;4.40;3.73;;;;;;;21.69;20.54;94996.03;7299721;19;136973;-76
2022/01/22 09:07:13;;;;;;;4.10;3.80;;;;;;;21.76;20.90;95004.41;7287173;19;137184;-76
2022/01/22 09:09:39;;;;;;;3.77;3.50;;;;;;;21.68;21.23;94999.00;7298924;19;137396;-77
2022/01/22 09:12:07;;;;;;;4.10;3.70;;;;;;;21.66;20.86;94996.63;7300961;19;137140;-77
2022/01/22 09:14:33;;;;;;;3.70;3.40;;;;;;;21.64;20.77;94993.47;7300661;19;136856;-76
2022/01/22 09:16:59;;;;;;;4.00;3.70;;;;;;;21.71;20.58;95001.06;7286624;19;140012;-76
2022/01/22 09:19:34;;;;;;;3.53;3.23;;;;;;;21.68;20.98;95007.75;7300664;19;137316;-76
2022/01/22 09:22:02;;;;;;;3.60;3.30;;;;;;;21.71;20.96;94991.22;7298120;19;138948;-76
2022/01/22 09:24:27;;;;;;;4.00;3.67;;;;;;;21.72;21.19;94994.66;7298897;19;137022;-76
2022/01/22 09:26:53;;;;;;;3.47;3.17;;;;;;;21.60;20.73;94979.19;7297310;19;139219;-76
2022/01/22 09:29:20;;;;;;;4.00;3.60;;;;;;;21.70;21.33;94979.00;7285932;19;139456;-76
2022/01/22 09:31:46;;;;;;;3.80;3.50;;;;;;;21.63;21.02;94967.97;7306958;19;137838;-78
2022/01/22 09:34:13;;;;;;;3.67;3.37;;;;;;;21.67;21.00;94968.97;7309006;19;137131;-76
2022/01/22 09:36:39;;;;;;;3.27;2.97;;;;;;;21.71;21.14;94972.59;7306436;19;137130;-78
2022/01/22 09:39:05;;;;;;;3.17;2.97;;;;;;;21.67;21.27;94974.28;7296341;19;137080;-76
2022/01/22 09:41:31;;;;;;;3.67;3.37;;;;;;;21.66;21.14;94971.91;7306895;19;137587;-77
2022/01/22 09:43:57;;;;;;;3.43;3.13;;;;;;;21.57;21.10;94961.19;7304810;19;136612;-76
2022/01/22 09:46:26;;;;;;;3.80;3.40;;;;;;;21.64;21.12;94961.56;7307146;19;137578;-77
2022/01/22 09:48:53;;;;;;;3.80;3.50;;;;;;;21.68;20.84;94956.47;7306928;19;138904;-76
2022/01/22 09:51:19;;;;;;;3.63;3.33;;;;;;;21.68;20.83;94949.28;7296225;19;137036;-78
2022/01/22 09:53:45;;;;;;;3.93;3.63;;;;;;;21.71;21.06;94942.56;7306069;19;136822;-76
2022/01/22 09:56:13;;;;;;;3.60;3.30;;;;;;;21.63;21.32;94925.44;7305776;19;137765;-76
2022/01/22 09:58:39;;;;;;;3.53;3.23;;;;;;;21.73;21.04;94943.84;7307077;19;136654;-75
2022/01/22 10:01:28;;;;;;;3.47;3.20;;;;;;;21.79;21.20;94934.66;7296193;19;136975;-77
2022/01/22 10:03:57;;;;;;;3.40;3.10;;;;;;;21.77;20.81;94928.06;7307585;19;137227;-74
2022/01/22 10:06:29;;;;;;;3.83;3.53;;;;;;;21.72;21.17;94922.88;7304664;19;137273;-77
2022/01/22 10:09:26;;;;;;;3.50;3.17;;;;;;;21.76;21.01;94945.88;7307554;19;136843;-77
2022/01/22 10:12:16;;;;;;;3.40;3.10;;;;;;;21.79;20.63;94934.66;7296020;19;137613;-76
2022/01/22 10:15:11;;;;;;;2.83;2.63;;;;;;;21.84;21.29;94931.91;7305646;19;136943;-76
2022/01/22 10:17:53;;;;;;;2.93;2.73;;;;;;;21.81;20.97;94915.72;7307777;19;137411;-77
2022/01/22 10:20:23;;;;;;;3.67;3.37;;;;;;;21.89;21.14;94918.47;7307677;19;137460;-75
2022/01/22 10:22:50;;;;;;;3.30;3.10;;;;;;;21.90;21.21;94908.63;7295779;19;140412;-78
2022/01/22 10:25:20;;;;;;;3.97;3.07;;;;;;;21.80;21.18;94895.53;7306730;19;137534;-76
2022/01/22 10:27:54;;;;;;;2.80;2.60;;;;;;;21.90;21.27;94911.28;7305097;19;137283;-74
2022/01/22 10:30:21;;;;;;;2.80;2.60;;;;;;;21.89;20.61;94907.06;7306241;19;139189;-77
2022/01/22 10:32:53;;;;;;;3.20;3.00;;;;;;;21.82;21.21;94880.84;7308173;19;137330;-75
2022/01/22 10:35:28;;;;;;;2.90;2.70;;;;;;;21.79;21.19;94880.69;7296548;19;136839;-76
2022/01/22 10:37:59;;;;;;;3.40;3.10;;;;;;;21.92;20.69;94896.59;7307624;19;136889;-78
2022/01/22 10:40:27;;;;;;;3.37;3.07;;;;;;;21.91;20.78;94879.06;7307904;19;137317;-75
2022/01/22 10:43:31;;;;;;;2.90;2.70;;;;;;;21.91;21.17;94884.38;7306215;19;136984;-77
2022/01/22 10:46:20;;;;;;;3.40;3.10;;;;;;;21.89;21.32;94891.09;7295162;19;137294;-76
2022/01/22 10:48:57;;;;;;;3.03;2.83;;;;;;;21.81;20.89;94870.53;7305894;19;138054;-76
2022/01/22 10:51:27;;;;;;;3.20;2.90;;;;;;;21.89;20.85;94881.25;7307339;19;137390;-77
2022/01/22 10:53:57;;;;;;;3.40;2.97;;;;;;;21.89;20.89;94880.47;7304095;19;137118;-75
2022/01/22 10:56:23;;;;;;;3.10;2.80;;;;;;;21.88;20.87;94863.72;7296338;19;138073;-75
2022/01/22 10:58:57;;;;;;;3.43;3.13;;;;;;;21.83;21.35;94861.16;7308027;19;137544;-75
2022/01/22 11:01:31;;;;;;;2.80;2.60;;;;;;;21.85;20.90;94868.84;7307225;19;137062;-75
2022/01/22 11:04:17;;;;;;;2.70;2.50;;;;;;;21.84;21.08;94860.09;7304791;19;138875;-77
2022/01/22 11:06:51;;;;;;;2.93;2.73;;;;;;;21.83;20.63;94865.69;7295644;19;138693;-76
2022/01/22 11:09:17;;;;;;;2.60;2.40;;;;;;;21.87;21.17;94864.03;7308263;19;136944;-77
2022/01/22 11:11:43;;;;;;;3.53;3.23;;;;;;;21.80;21.13;94861.75;7306414;19;139014;-78
2022/01/22 11:14:10;;;;;;;3.13;2.83;;;;;;;21.86;21.14;94871.22;7307148;19;138715;-77
2022/01/22 11:16:38;;;;;;;3.30;2.90;;;;;;;21.82;21.47;94872.88;7309270;19;137070;-76
2022/01/22 11:19:04;;;;;;;2.90;2.70;;;;;;;21.81;21.10;94860.66;7296306;19;138004;-77
2022/01/22 11:21:31;;;;;;;3.13;2.93;;;;;;;21.50;21.08;94807.44;7309362;19;137684;-76
2022/01/22 11:23:58;;;;;;;3.23;2.70;;;;;;;21.76;21.59;94860.78;7309000;19;136946;-77
2022/01/22 11:26:24;;;;;;;3.17;2.87;;;;;;;21.83;21.56;94853.16;7305760;19;137005;-75
2022/01/22 11:28:53;;;;;;;2.83;2.63;;;;;;;21.81;21.01;94842.06;7297448;19;137468;-76
2022/01/22 11:31:21;;;;;;;2.77;2.57;;;;;;;21.78;21.16;94837.34;7309203;19;138206;-75
2022/01/22 11:33:49;;;;;;;2.87;2.67;;;;;;;21.79;21.48;94838.91;7309637;19;137541;-76
2022/01/22 11:36:28;;;;;;;2.97;2.77;;;;;;;21.76;21.34;94844.84;7309298;19;136760;-75
2022/01/22 11:39:00;;;;;;;2.90;2.63;;;;;;;21.59;21.62;94824.22;7307707;19;138203;-77
2022/01/22 11:41:27;;;;;;;3.20;3.00;;;;;;;21.62;21.13;94822.84;7296261;19;140744;-78
2022/01/22 11:44:07;;;;;;;2.93;2.70;;;;;;;21.71;21.42;94855.59;7309487;19;136795;-74
2022/01/22 11:46:37;;;;;;;3.03;2.83;;;;;;;21.61;21.21;94832.69;7317533;19;136469;-77
2022/01/22 11:49:26;;;;;;;3.10;2.80;;;;;;;21.65;21.23;94845.38;7317062;19;137143;-75
2022/01/22 11:52:12;;;;;;;3.00;2.80;;;;;;;21.56;21.33;94834.69;7310111;19;137955;-75
2022/01/22 11:55:01;;;;;;;3.07;2.87;;;;;;;21.58;21.93;94843.13;7317995;19;137334;-75
2022/01/22 11:57:30;;;;;;;3.00;2.80;;;;;;;21.58;21.57;94848.47;7317531;19;136890;-76
2022/01/22 12:00:19;;;;;;;3.10;2.90;;;;;;;21.56;21.67;94845.31;7311972;19;137071;-75
2022/01/22 12:02:44;;;;;;;3.23;3.03;;;;;;;21.48;21.82;94833.50;7294341;19;137329;-77
2022/01/22 12:05:10;;;;;;;3.23;3.03;;;;;;;21.55;21.60;94833.13;7304988;19;139393;-77
2022/01/22 12:07:36;;;;;;;2.70;2.50;;;;;;;21.47;21.36;94823.97;7304584;19;137029;-77
2022/01/22 12:10:35;;;;;;;2.90;2.70;;;;;;;21.52;21.52;94839.81;7306750;19;137227;-77
2022/01/22 12:16:15;;;;;;;3.10;2.80;;;;;;;21.46;21.85;94818.94;7306622;19;136619;-75
2022/01/22 12:18:59;;;;;;;3.07;2.87;;;;;;;21.44;21.59;94815.81;7303382;19;136600;-76
2022/01/22 12:21:36;;;;;;;2.93;2.73;;;;;;;21.47;21.42;94823.19;7302519;19;140050;-77
2022/01/22 12:24:08;;;;;;;2.87;2.67;;;;;;;21.45;21.93;94820.03;7292985;19;138287;-76
2022/01/22 12:26:47;;;;;;;2.90;2.70;;;;;;;21.48;21.77;94827.41;7303046;19;138714;-75
2022/01/22 12:29:34;;;;;;;2.93;2.63;;;;;;;21.43;21.60;94827.53;7303151;19;136907;-76
2022/01/22 12:32:11;;;;;;;2.90;2.70;;;;;;;21.39;21.61;94819.38;7304485;19;137152;-77
2022/01/22 12:34:58;;;;;;;3.03;2.73;;;;;;;21.46;21.99;94837.56;7293230;19;138425;-77
2022/01/22 12:37:26;;;;;;;2.40;2.20;;;;;;;21.40;21.54;94834.22;7304116;19;137816;-76
2022/01/22 12:39:54;;;;;;;3.23;3.03;;;;;;;21.42;22.12;94844.56;7303616;19;136584;-77
2022/01/22 12:42:30;;;;;;;3.10;2.80;;;;;;;21.35;21.49;94830.91;7304510;19;138063;-77
2022/01/22 12:45:07;;;;;;;2.93;2.73;;;;;;;21.37;21.70;94844.69;7300210;19;139414;-78
2022/01/22 12:47:35;;;;;;;3.07;2.87;;;;;;;21.39;21.57;94845.94;7289325;19;136805;-75
2022/01/22 12:50:07;;;;;;;2.87;2.50;;;;;;;21.31;21.84;94834.16;7301728;19;136770;-76
2022/01/22 12:52:34;;;;;;;2.90;2.47;;;;;;;21.33;21.76;94828.53;7305333;19;138039;-76
2022/01/22 12:55:01;;;;;;;3.10;2.90;;;;;;;21.30;22.29;94821.16;7298819;19;137223;-77
2022/01/22 12:57:30;;;;;;;2.60;2.40;;;;;;;21.23;21.82;94816.22;7291020;19;139564;-77
2022/01/22 13:00:11;;;;;;;2.80;2.60;;;;;;;21.32;21.67;94833.06;7304132;19;137419;-75
2022/01/22 13:02:43;;;;;;;3.10;2.90;;;;;;;21.25;22.09;94819.41;7302951;19;137801;-75
2022/01/22 13:05:11;;;;;;;3.10;2.90;;;;;;;21.30;21.81;94819.28;7304321;19;136991;-77
2022/01/22 13:07:41;;;;;;;2.90;2.63;;;;;;;21.25;21.65;94802.69;7290016;19;137693;-78
2022/01/22 13:10:08;;;;;;;3.33;3.03;;;;;;;21.26;21.82;94810.34;7302460;19;136734;-76
2022/01/22 13:12:36;;;;;;;2.87;2.67;;;;;;;21.20;21.72;94792.94;7307576;19;139092;-75